Time;durP1;ratioP1;P1;durP2;ratioP2;P2;SDS_P1;SDS_P2;PMS_P1;PMS_P2;Temp;Humidity;BMP_temperature;BMP_pressure;BME280_temperature;BME280_humidity;BME280_pressure;Samples;Min_cycle;Max_cycle;Signal;HPM_P1;HPM_P2
2023/08/15 06:25:40;;;;;;;;;;;;;;;;;;5044366;23;20052;-94
2023/08/15 10:16:24;;;;;;;;;;;;;;;;;;4993835;28;20004;-94
2023/08/15 10:18:54;;;;;;;;;;;;;;;;;;4978381;28;19921;-94
2023/08/15 10:21:19;;;;;;;;;;;;;;;;;;4978125;28;19916;-94
2023/08/15 10:23:44;;;;;;;;;;;;;;;;;;4995653;28;19913;-96
2023/08/15 10:26:10;;;;;;;;;;;;;;;;;;4981412;28;19914;-93
2023/08/15 10:28:35;;;;;;;;;;;;;;;;;;4995962;28;19910;-96
2023/08/15 10:31:01;;;;;;;;;;;;;;;;;;4977727;28;19914;-92
2023/08/15 10:33:28;;;;;;;;;;;;;;;;;;4978263;28;20323;-96
2023/08/15 10:35:54;;;;;;;;;;;;;;;;;;4995251;28;20000;-94
2023/08/15 10:38:49;;;;;;;;;;;;;;;;;;4980818;28;20402;-94
2023/08/15 10:41:15;;;;;;;;;;;;;;;;;;4966550;28;19914;-95
2023/08/15 10:43:46;;;;;;;;;;;;;;;;;;4997309;28;19917;-96
2023/08/15 10:46:11;;;;;;;;;;;;;;;;;;4978739;28;19913;-96
2023/08/15 10:48:40;;;;;;;;;;;;;;;;;;4983674;28;19913;-96
2023/08/15 10:51:14;;;;;;;;;;;;;;;;;;4999554;28;19940;-95
2023/08/15 10:53:40;;;;;;;;;;;;;;;;;;5008753;28;19914;-95
2023/08/15 10:56:06;;;;;;;;;;;;;;;;;;5000379;28;20288;-96
2023/08/15 10:58:32;;;;;;;;;;;;;;;;;;4996199;28;19921;-96
2023/08/15 11:00:57;;;;;;;;;;;;;;;;;;4996357;28;19914;-96
2023/08/15 11:03:23;;;;;;;;;;;;;;;;;;4995725;28;19913;-94
2023/08/15 11:05:49;;;;;;;;;;;;;;;;;;4995561;28;19961;-96
2023/08/15 11:08:15;;;;;;;;;;;;;;;;;;4995062;28;19928;-94
2023/08/15 11:10:48;;;;;;;;;;;;;;;;;;4995227;28;19913;-94
2023/08/15 11:13:15;;;;;;;;;;;;;;;;;;4994886;28;19956;-95
2023/08/15 11:15:40;;;;;;;;;;;;;;;;;;4994801;28;20376;-96
2023/08/15 11:18:07;;;;;;;;;;;;;;;;;;4977884;28;19922;-96
2023/08/15 11:20:32;;;;;;;;;;;;;;;;;;4994992;28;20020;-96
2023/08/15 11:22:58;;;;;;;;;;;;;;;;;;4998497;28;19920;-94
2023/08/15 11:25:24;;;;;;;;;;;;;;;;;;4982384;28;20383;-95
2023/08/15 11:27:52;;;;;;;;;;;;;;;;;;4998284;28;20016;-94
2023/08/15 11:30:18;;;;;;;;;;;;;;;;;;4998547;28;20012;-93
2023/08/15 11:32:43;;;;;;;;;;;;;;;;;;4980810;28;20017;-95
2023/08/15 11:35:09;;;;;;;;;;;;;;;;;;4999405;28;19977;-93
2023/08/15 11:37:35;;;;;;;;;;;;;;;;;;5000492;28;19917;-96
2023/08/15 11:40:00;;;;;;;;;;;;;;;;;;4987224;28;19918;-96
2023/08/15 11:42:26;;;;;;;;;;;;;;;;;;5006710;28;19913;-90
2023/08/15 11:45:21;;;;;;;;;;;;;;;;;;4999536;28;19909;-90
2023/08/15 11:47:56;;;;;;;;;;;;;;;;;;4988287;28;19914;-92
2023/08/15 11:50:29;;;;;;;;;;;;;;;;;;5000397;28;19914;-92
2023/08/15 11:52:54;;;;;;;;;;;;;;;;;;4981082;28;19996;-93
2023/08/15 11:55:20;;;;;;;;;;;;;;;;;;5000526;28;19952;-96
2023/08/15 11:57:45;;;;;;;;;;;;;;;;;;4997981;28;19914;-94
2023/08/15 12:00:11;;;;;;;;;;;;;;;;;;4983337;28;19917;-95
2023/08/15 12:02:43;;;;;;;;;;;;;;;;;;4980633;28;20311;-96
2023/08/15 12:05:12;;;;;;;;;;;;;;;;;;4981000;28;19913;-96
2023/08/15 12:07:38;;;;;;;;;;;;;;;;;;4980793;28;19920;-95
2023/08/15 12:10:07;;;;;;;;;;;;;;;;;;4981030;28;20008;-96
2023/08/15 12:12:38;;;;;;;;;;;;;;;;;;4980275;28;19918;-96
2023/08/15 12:15:05;;;;;;;;;;;;;;;;;;4997498;28;19914;-96
2023/08/15 12:17:31;;;;;;;;;;;;;;;;;;4980322;28;19918;-96
2023/08/15 12:19:56;;;;;;;;;;;;;;;;;;4980355;28;19913;-96
2023/08/15 12:22:21;;;;;;;;;;;;;;;;;;4979960;28;19914;-96
2023/08/15 12:24:47;;;;;;;;;;;;;;;;;;4997495;28;19913;-96
2023/08/15 12:27:12;;;;;;;;;;;;;;;;;;4980050;28;19914;-96
2023/08/15 12:29:37;;;;;;;;;;;;;;;;;;4980387;28;19914;-95
2023/08/15 12:32:03;;;;;;;;;;;;;;;;;;4980150;28;19914;-96
2023/08/15 12:34:28;;;;;;;;;;;;;;;;;;4981007;28;20265;-96
2023/08/15 12:36:54;;;;;;;;;;;;;;;;;;4997648;28;19992;-96
2023/08/15 12:39:19;;;;;;;;;;;;;;;;;;4980467;28;19986;-96
2023/08/15 12:41:44;;;;;;;;;;;;;;;;;;4990851;28;19921;-96
2023/08/15 12:44:10;;;;;;;;;;;;;;;;;;4984007;28;19992;-96
2023/08/15 12:46:35;;;;;;;;;;;;;;;;;;5022584;23;19960;-94
2023/08/15 12:49:02;;;;;;;;;;;;;;;;;;4982731;28;19926;-96
2023/08/15 12:51:27;;;;;;;;;;;;;;;;;;4990687;23;19921;-96
2023/08/15 12:53:54;;;;;;;;;;;;;;;;;;5003988;23;19929;-96
2023/08/15 12:56:19;;;;;;;;;;;;;;;;;;4994330;28;19908;-96
2023/08/15 12:58:45;;;;;;;;;;;;;;;;;;4994280;28;19914;-96
2023/08/15 13:01:16;;;;;;;;;;;;;;;;;;4997367;28;19921;-96
2023/08/15 13:03:42;;;;;;;;;;;;;;;;;;4996649;28;19914;-95
2023/08/15 13:06:07;;;;;;;;;;;;;;;;;;4995113;28;20299;-96
2023/08/15 13:08:33;;;;;;;;;;;;;;;;;;4976863;28;20289;-96
2023/08/15 13:10:58;;;;;;;;;;;;;;;;;;4976391;28;20281;-95
2023/08/15 13:13:23;;;;;;;;;;;;;;;;;;4977819;28;19914;-96
2023/08/15 13:15:49;;;;;;;;;;;;;;;;;;4977907;28;19914;-96
2023/08/15 13:18:15;;;;;;;;;;;;;;;;;;4976147;28;19914;-96
2023/08/15 13:20:40;;;;;;;;;;;;;;;;;;4977125;28;19914;-96
2023/08/15 13:23:06;;;;;;;;;;;;;;;;;;4983655;28;19968;-96
2023/08/15 13:25:31;;;;;;;;;;;;;;;;;;4979346;28;19913;-96
2023/08/15 13:27:57;;;;;;;;;;;;;;;;;;4983223;28;19997;-94
2023/08/15 13:30:22;;;;;;;;;;;;;;;;;;4995831;28;19925;-96
2023/08/15 13:32:58;;;;;;;;;;;;;;;;;;4990280;28;19914;-96
2023/08/15 13:35:23;;;;;;;;;;;;;;;;;;4988216;28;19954;-96
2023/08/15 13:37:49;;;;;;;;;;;;;;;;;;4985842;28;19918;-96
2023/08/15 13:40:14;;;;;;;;;;;;;;;;;;4993133;28;19961;-96
2023/08/15 13:42:46;;;;;;;;;;;;;;;;;;4994618;28;19937;-96
2023/08/15 13:45:17;;;;;;;;;;;;;;;;;;4999866;28;19917;-93
2023/08/15 13:47:43;;;;;;;;;;;;;;;;;;4997590;28;19944;-96
2023/08/15 13:50:09;;;;;;;;;;;;;;;;;;4982950;28;19902;-95
2023/08/15 13:52:37;;;;;;;;;;;;;;;;;;4991574;28;19914;-96
2023/08/15 13:55:04;;;;;;;;;;;;;;;;;;4991295;23;19906;-92
2023/08/15 13:57:30;;;;;;;;;;;;;;;;;;4977111;29;19915;-95
2023/08/15 13:59:56;;;;;;;;;;;;;;;;;;4956901;29;19978;-94
2023/08/15 14:02:26;;;;;;;;;;;;;;;;;;4985306;23;19910;-94
2023/08/15 14:04:52;;;;;;;;;;;;;;;;;;4981350;28;20332;-95
2023/08/15 14:07:17;;;;;;;;;;;;;;;;;;4990629;28;20408;-95
2023/08/15 14:09:42;;;;;;;;;;;;;;;;;;4987607;28;19918;-93
2023/08/15 14:12:08;;;;;;;;;;;;;;;;;;4975373;28;19961;-95
2023/08/15 14:14:33;;;;;;;;;;;;;;;;;;4960866;28;20361;-96
2023/08/15 14:16:58;;;;;;;;;;;;;;;;;;4995806;28;19925;-94
2023/08/15 14:19:33;;;;;;;;;;;;;;;;;;4993912;28;19922;-96
2023/08/15 14:21:59;;;;;;;;;;;;;;;;;;4996153;28;19925;-96
2023/08/15 14:24:25;;;;;;;;;;;;;;;;;;4991621;28;19902;-96
2023/08/15 14:26:51;;;;;;;;;;;;;;;;;;4996489;28;19969;-94
2023/08/15 14:29:17;;;;;;;;;;;;;;;;;;4993653;28;19924;-96
2023/08/15 14:31:42;;;;;;;;;;;;;;;;;;4993538;28;19957;-96
2023/08/15 14:34:08;;;;;;;;;;;;;;;;;;4986945;28;20280;-96
2023/08/15 14:36:35;;;;;;;;;;;;;;;;;;4982633;28;19914;-96
2023/08/15 14:39:03;;;;;;;;;;;;;;;;;;4976906;28;19915;-96
2023/08/15 14:41:33;;;;;;;;;;;;;;;;;;4964500;28;20369;-95
2023/08/15 14:43:58;;;;;;;;;;;;;;;;;;4955907;28;19915;-95
2023/08/15 14:46:23;;;;;;;;;;;;;;;;;;4955210;28;19914;-86
2023/08/15 14:48:49;;;;;;;;;;;;;;;;;;4956079;29;20372;-85
2023/08/15 14:51:14;;;;;;;;;;;;;;;;;;4939258;29;19922;-86
2023/08/15 14:53:39;;;;;;;;;;;;;;;;;;4936907;29;19937;-86
2023/08/15 14:56:06;;;;;;;;;;;;;;;;;;4937346;29;19953;-86
2023/08/15 14:58:31;;;;;;;;;;;;;;;;;;4940709;29;20376;-87
2023/08/15 15:00:57;;;;;;;;;;;;;;;;;;4940631;29;19914;-86
2023/08/15 15:03:23;;;;;;;;;;;;;;;;;;4940410;29;19919;-87
2023/08/15 15:05:48;;;;;;;;;;;;;;;;;;4940670;29;20010;-87
2023/08/15 15:08:25;;;;;;;;;;;;;;;;;;4940674;29;20001;-88
2023/08/15 15:11:14;;;;;;;;;;;;;;;;;;4939013;29;19915;-87
2023/08/15 15:13:39;;;;;;;;;;;;;;;;;;4939601;29;20274;-87
2023/08/15 15:16:07;;;;;;;;;;;;;;;;;;4940689;29;19921;-87
2023/08/15 15:18:33;;;;;;;;;;;;;;;;;;4938965;29;20378;-86
2023/08/15 15:21:16;;;;;;;;;;;;;;;;;;4939246;29;19914;-92
2023/08/15 15:23:42;;;;;;;;;;;;;;;;;;4940253;29;19914;-86
2023/08/15 15:26:07;;;;;;;;;;;;;;;;;;4940215;29;19921;-86
2023/08/15 15:31:36;;;;;;;;;;;;;;;;;;4939616;29;19925;-88
2023/08/15 15:34:20;;;;;;;;;;;;;;;;;;4939421;29;19915;-88
2023/08/15 15:36:47;;;;;;;;;;;;;;;;;;4940177;29;19915;-87
2023/08/15 15:39:13;;;;;;;;;;;;;;;;;;4938428;29;19915;-88
2023/08/15 15:41:38;;;;;;;;;;;;;;;;;;4938510;29;19957;-86
2023/08/15 15:44:06;;;;;;;;;;;;;;;;;;4940764;29;19961;-89
2023/08/15 15:46:34;;;;;;;;;;;;;;;;;;4938294;29;19922;-87
2023/08/15 15:49:00;;;;;;;;;;;;;;;;;;4938673;29;19997;-87
2023/08/15 15:51:25;;;;;;;;;;;;;;;;;;4938180;29;20021;-86
2023/08/15 15:53:50;;;;;;;;;;;;;;;;;;4938056;29;20362;-86
2023/08/15 15:56:16;;;;;;;;;;;;;;;;;;4939435;29;19926;-86
2023/08/15 15:58:41;;;;;;;;;;;;;;;;;;4940253;29;19981;-92
2023/08/15 16:01:06;;;;;;;;;;;;;;;;;;4940672;29;19915;-93
2023/08/15 16:03:32;;;;;;;;;;;;;;;;;;4938601;29;20006;-95
2023/08/15 16:05:57;;;;;;;;;;;;;;;;;;4941021;29;19922;-93
2023/08/15 16:08:23;;;;;;;;;;;;;;;;;;4937173;29;20072;-93
2023/08/15 16:10:48;;;;;;;;;;;;;;;;;;4938362;29;19941;-94
2023/08/15 16:13:13;;;;;;;;;;;;;;;;;;4938306;29;19938;-92
2023/08/15 16:15:39;;;;;;;;;;;;;;;;;;4939945;29;19957;-93
2023/08/15 16:18:04;;;;;;;;;;;;;;;;;;4939682;29;19950;-93
2023/08/15 16:20:29;;;;;;;;;;;;;;;;;;4938376;29;19997;-93
2023/08/15 16:22:55;;;;;;;;;;;;;;;;;;4939656;29;19960;-89
2023/08/15 16:25:21;;;;;;;;;;;;;;;;;;4939924;29;19914;-92
2023/08/15 16:27:46;;;;;;;;;;;;;;;;;;4939198;29;19918;-92
2023/08/15 16:30:12;;;;;;;;;;;;;;;;;;4939711;29;19922;-94
2023/08/15 16:32:37;;;;;;;;;;;;;;;;;;4939187;29;19926;-94
2023/08/15 16:35:03;;;;;;;;;;;;;;;;;;4940381;29;20366;-93
2023/08/15 16:37:28;;;;;;;;;;;;;;;;;;4940522;29;19962;-93
2023/08/15 16:39:53;;;;;;;;;;;;;;;;;;4947842;29;19914;-88
2023/08/15 16:42:19;;;;;;;;;;;;;;;;;;4941810;29;19915;-93
2023/08/15 16:44:44;;;;;;;;;;;;;;;;;;4939141;29;19923;-92
2023/08/15 16:47:09;;;;;;;;;;;;;;;;;;4938051;29;19915;-96
2023/08/15 16:49:35;;;;;;;;;;;;;;;;;;4940469;29;19914;-93
2023/08/15 16:52:00;;;;;;;;;;;;;;;;;;4940714;29;19922;-89
2023/08/15 16:54:26;;;;;;;;;;;;;;;;;;4939232;29;19942;-90
2023/08/15 16:56:51;;;;;;;;;;;;;;;;;;4939772;29;20351;-88
2023/08/15 16:59:16;;;;;;;;;;;;;;;;;;4938580;29;19915;-93
2023/08/15 17:01:42;;;;;;;;;;;;;;;;;;4938374;29;19930;-89
2023/08/15 17:04:07;;;;;;;;;;;;;;;;;;4938999;29;20017;-93
2023/08/15 17:06:32;;;;;;;;;;;;;;;;;;4938891;29;19915;-90
2023/08/15 17:08:58;;;;;;;;;;;;;;;;;;4938592;29;19943;-90
2023/08/15 17:11:23;;;;;;;;;;;;;;;;;;4938389;29;20281;-92
2023/08/15 17:13:48;;;;;;;;;;;;;;;;;;4938463;29;19921;-93
2023/08/15 17:16:14;;;;;;;;;;;;;;;;;;4940959;29;19921;-94
2023/08/15 17:18:40;;;;;;;;;;;;;;;;;;4947608;29;19911;-92
2023/08/15 17:21:07;;;;;;;;;;;;;;;;;;4948915;29;19915;-93
2023/08/15 17:23:37;;;;;;;;;;;;;;;;;;4943293;29;19911;-94
2023/08/15 17:26:03;;;;;;;;;;;;;;;;;;4946312;29;19997;-94
2023/08/15 17:28:28;;;;;;;;;;;;;;;;;;4943189;29;19938;-93
2023/08/15 17:33:35;;;;;;;;;;;;;;;;;;5798927;23;19922;-96
2023/08/15 17:36:00;;;;;;;;;;;;;;;;;;4965798;28;19914;-93
2023/08/15 17:38:26;;;;;;;;;;;;;;;;;;4982377;28;19925;-95
2023/08/15 17:40:51;;;;;;;;;;;;;;;;;;4960683;28;19921;-93
2023/08/15 17:43:21;;;;;;;;;;;;;;;;;;4987246;28;19930;-96
2023/08/15 17:45:50;;;;;;;;;;;;;;;;;;4993732;23;20013;-96
2023/08/15 17:48:22;;;;;;;;;;;;;;;;;;4984648;23;19923;-96
2023/08/15 17:50:50;;;;;;;;;;;;;;;;;;4968219;29;19923;-96
2023/08/15 17:53:27;;;;;;;;;;;;;;;;;;4970079;28;19914;-96
2023/08/15 17:56:10;;;;;;;;;;;;;;;;;;4968768;28;19918;-96
2023/08/15 17:58:53;;;;;;;;;;;;;;;;;;4968514;29;19915;-96
2023/08/15 18:01:22;;;;;;;;;;;;;;;;;;4970505;28;19910;-96
2023/08/15 18:03:50;;;;;;;;;;;;;;;;;;4958651;28;19919;-89
2023/08/15 18:06:16;;;;;;;;;;;;;;;;;;4956377;28;20325;-88
2023/08/15 18:08:41;;;;;;;;;;;;;;;;;;4956207;28;20009;-89
2023/08/15 18:11:07;;;;;;;;;;;;;;;;;;4956230;29;20338;-89
2023/08/15 18:13:32;;;;;;;;;;;;;;;;;;4955897;28;20351;-88
2023/08/15 18:15:57;;;;;;;;;;;;;;;;;;4956514;28;19914;-89
2023/08/15 18:18:23;;;;;;;;;;;;;;;;;;4956494;29;19914;-88
2023/08/15 18:20:48;;;;;;;;;;;;;;;;;;4956033;29;19919;-88
2023/08/15 18:23:13;;;;;;;;;;;;;;;;;;4955651;28;19914;-89
2023/08/15 18:25:39;;;;;;;;;;;;;;;;;;4956112;29;19914;-88
2023/08/15 18:28:04;;;;;;;;;;;;;;;;;;4955929;29;20272;-89
2023/08/15 18:30:29;;;;;;;;;;;;;;;;;;4956061;28;19924;-90
2023/08/15 18:32:55;;;;;;;;;;;;;;;;;;4955579;28;20281;-90
2023/08/15 18:35:21;;;;;;;;;;;;;;;;;;4954902;29;19957;-90
2023/08/15 18:37:46;;;;;;;;;;;;;;;;;;4956240;28;19914;-89
2023/08/15 18:40:17;;;;;;;;;;;;;;;;;;4955871;28;20005;-89
2023/08/15 18:42:43;;;;;;;;;;;;;;;;;;4954275;29;20337;-89
2023/08/15 18:45:09;;;;;;;;;;;;;;;;;;4956116;28;20030;-89
2023/08/15 18:47:34;;;;;;;;;;;;;;;;;;4954506;28;19914;-90
2023/08/15 18:50:00;;;;;;;;;;;;;;;;;;4955600;28;19922;-89
2023/08/15 18:52:25;;;;;;;;;;;;;;;;;;4955789;29;19914;-89
2023/08/15 18:54:50;;;;;;;;;;;;;;;;;;4954501;29;19915;-89
2023/08/15 18:57:16;;;;;;;;;;;;;;;;;;4955972;29;19914;-89
2023/08/15 18:59:41;;;;;;;;;;;;;;;;;;4954445;29;19914;-89
2023/08/15 19:02:07;;;;;;;;;;;;;;;;;;4954397;29;19920;-90
2023/08/15 19:04:32;;;;;;;;;;;;;;;;;;4954553;29;20485;-89
2023/08/15 19:06:57;;;;;;;;;;;;;;;;;;4955804;28;20284;-89
2023/08/15 19:09:23;;;;;;;;;;;;;;;;;;4955826;29;20392;-89
2023/08/15 19:11:48;;;;;;;;;;;;;;;;;;4954309;29;19982;-89
2023/08/15 19:14:13;;;;;;;;;;;;;;;;;;4955869;29;20370;-89
2023/08/15 19:16:39;;;;;;;;;;;;;;;;;;4955539;28;20380;-88
2023/08/15 19:19:04;;;;;;;;;;;;;;;;;;4954251;29;20904;-89
2023/08/15 19:21:30;;;;;;;;;;;;;;;;;;4955376;28;19919;-89
2023/08/15 19:23:55;;;;;;;;;;;;;;;;;;4955606;28;20350;-89
2023/08/15 19:26:21;;;;;;;;;;;;;;;;;;4955495;29;20432;-89
2023/08/15 19:28:48;;;;;;;;;;;;;;;;;;4955730;29;19961;-90
2023/08/15 19:31:14;;;;;;;;;;;;;;;;;;4954068;28;19922;-89
2023/08/15 19:33:39;;;;;;;;;;;;;;;;;;4954408;29;19918;-89
2023/08/15 19:36:05;;;;;;;;;;;;;;;;;;4955429;28;19921;-89
2023/08/15 19:38:30;;;;;;;;;;;;;;;;;;4955722;28;19914;-89
2023/08/15 19:40:55;;;;;;;;;;;;;;;;;;4955356;29;19940;-88
2023/08/15 19:43:21;;;;;;;;;;;;;;;;;;4957618;28;20269;-89
2023/08/15 19:45:46;;;;;;;;;;;;;;;;;;4957560;28;20395;-89
2023/08/15 19:48:11;;;;;;;;;;;;;;;;;;4957386;29;20308;-89
2023/08/15 19:50:37;;;;;;;;;;;;;;;;;;4958694;28;19914;-89
2023/08/15 19:53:02;;;;;;;;;;;;;;;;;;4957277;29;19942;-89
2023/08/15 19:55:29;;;;;;;;;;;;;;;;;;4957642;28;19914;-89
2023/08/15 19:57:54;;;;;;;;;;;;;;;;;;4958677;28;20333;-89
2023/08/15 20:00:19;;;;;;;;;;;;;;;;;;4958809;28;19919;-89
2023/08/15 20:02:45;;;;;;;;;;;;;;;;;;4958374;29;19915;-89
2023/08/15 20:05:10;;;;;;;;;;;;;;;;;;4958553;28;19926;-89
2023/08/15 20:07:35;;;;;;;;;;;;;;;;;;4957333;29;19950;-89
2023/08/15 20:10:01;;;;;;;;;;;;;;;;;;4957162;29;19918;-89
2023/08/15 20:12:26;;;;;;;;;;;;;;;;;;4958400;29;20005;-89
2023/08/15 20:14:51;;;;;;;;;;;;;;;;;;4958581;29;20365;-87
2023/08/15 20:17:17;;;;;;;;;;;;;;;;;;4958563;29;19919;-92
2023/08/15 20:19:42;;;;;;;;;;;;;;;;;;4958137;28;19915;-84
2023/08/15 20:22:07;;;;;;;;;;;;;;;;;;4958715;29;19922;-93
2023/08/15 20:24:34;;;;;;;;;;;;;;;;;;4957566;29;19918;-90
2023/08/15 20:27:00;;;;;;;;;;;;;;;;;;4956915;29;20491;-90
2023/08/15 20:29:25;;;;;;;;;;;;;;;;;;4956962;29;19918;-96
2023/08/15 20:31:51;;;;;;;;;;;;;;;;;;4957058;29;19921;-90
2023/08/15 20:34:16;;;;;;;;;;;;;;;;;;4956834;29;20357;-93
2023/08/15 20:36:41;;;;;;;;;;;;;;;;;;4956969;29;19915;-91
2023/08/15 20:39:07;;;;;;;;;;;;;;;;;;4956885;29;19961;-90
2023/08/15 20:41:32;;;;;;;;;;;;;;;;;;4956708;29;20277;-90
2023/08/15 20:43:57;;;;;;;;;;;;;;;;;;4957160;29;19921;-91
2023/08/15 20:46:32;;;;;;;;;;;;;;;;;;4956711;29;20369;-89
2023/08/15 20:48:57;;;;;;;;;;;;;;;;;;4956363;29;19965;-89
2023/08/15 20:51:23;;;;;;;;;;;;;;;;;;4957688;29;19914;-89
2023/08/15 20:53:48;;;;;;;;;;;;;;;;;;4955943;28;19914;-89
2023/08/15 20:56:16;;;;;;;;;;;;;;;;;;4956380;29;19915;-90
2023/08/15 20:58:41;;;;;;;;;;;;;;;;;;4956698;29;19957;-91
2023/08/15 21:01:06;;;;;;;;;;;;;;;;;;4956370;29;19977;-93
2023/08/15 21:03:31;;;;;;;;;;;;;;;;;;4956549;29;20413;-91
2023/08/15 21:05:57;;;;;;;;;;;;;;;;;;4956505;29;19915;-91
2023/08/15 21:08:22;;;;;;;;;;;;;;;;;;4956265;29;19914;-90
2023/08/15 21:10:47;;;;;;;;;;;;;;;;;;4956160;29;19922;-91
2023/08/15 21:13:13;;;;;;;;;;;;;;;;;;4957481;29;20009;-92
2023/08/15 21:15:38;;;;;;;;;;;;;;;;;;4956281;29;19914;-91
2023/08/15 21:18:04;;;;;;;;;;;;;;;;;;4956575;29;19924;-93
2023/08/15 21:20:29;;;;;;;;;;;;;;;;;;4940316;29;19919;-91
2023/08/15 21:22:54;;;;;;;;;;;;;;;;;;4956229;29;19921;-91
2023/08/15 21:25:19;;;;;;;;;;;;;;;;;;4956037;29;19918;-89
2023/08/15 21:27:45;;;;;;;;;;;;;;;;;;4956234;29;20265;-89
2023/08/15 21:30:10;;;;;;;;;;;;;;;;;;4955828;29;19918;-89
2023/08/15 21:32:36;;;;;;;;;;;;;;;;;;4956774;28;19915;-89
2023/08/15 21:35:01;;;;;;;;;;;;;;;;;;4957101;29;20013;-89
2023/08/15 21:37:26;;;;;;;;;;;;;;;;;;4955840;29;19914;-88
2023/08/15 21:39:51;;;;;;;;;;;;;;;;;;4957044;29;20009;-89
2023/08/15 21:42:17;;;;;;;;;;;;;;;;;;4955915;29;19922;-88
2023/08/15 21:44:42;;;;;;;;;;;;;;;;;;4956999;29;19985;-89
2023/08/15 21:47:08;;;;;;;;;;;;;;;;;;4955570;29;19914;-89
2023/08/15 21:49:33;;;;;;;;;;;;;;;;;;4956648;29;19925;-90
2023/08/15 21:51:58;;;;;;;;;;;;;;;;;;4956524;29;19936;-90
2023/08/15 21:54:23;;;;;;;;;;;;;;;;;;4956794;29;20369;-88
2023/08/15 21:56:49;;;;;;;;;;;;;;;;;;4956395;28;19914;-90
2023/08/15 21:59:14;;;;;;;;;;;;;;;;;;4955523;29;20392;-90
2023/08/15 22:01:39;;;;;;;;;;;;;;;;;;4955348;29;19966;-89
2023/08/15 22:04:05;;;;;;;;;;;;;;;;;;4955211;29;19969;-89
2023/08/15 22:06:30;;;;;;;;;;;;;;;;;;4954175;28;19922;-89
2023/08/15 22:08:55;;;;;;;;;;;;;;;;;;4956482;28;20262;-89
2023/08/15 22:11:21;;;;;;;;;;;;;;;;;;4955275;29;19962;-89
2023/08/15 22:13:46;;;;;;;;;;;;;;;;;;4955042;29;19914;-90
2023/08/15 22:16:11;;;;;;;;;;;;;;;;;;4956164;29;19914;-89
2023/08/15 22:18:37;;;;;;;;;;;;;;;;;;4954841;29;19994;-89
2023/08/15 22:21:03;;;;;;;;;;;;;;;;;;4956304;28;19922;-90
2023/08/15 22:23:28;;;;;;;;;;;;;;;;;;4955935;28;20317;-89
2023/08/15 22:25:53;;;;;;;;;;;;;;;;;;4956107;29;20369;-88
2023/08/15 22:28:19;;;;;;;;;;;;;;;;;;4956295;29;19949;-89
2023/08/15 22:30:44;;;;;;;;;;;;;;;;;;4954995;29;20288;-92
2023/08/15 22:33:09;;;;;;;;;;;;;;;;;;4954885;29;19914;-89
2023/08/15 22:35:39;;;;;;;;;;;;;;;;;;4954726;29;19938;-86
